Time;durP1;ratioP1;P1;durP2;ratioP2;P2;SDS_P1;SDS_P2;PMS_P1;PMS_P2;Temp;Humidity;BMP_temperature;BMP_pressure;BME280_temperature;BME280_humidity;BME280_pressure;Samples;Min_cycle;Max_cycle;Signal;HPM_P1;HPM_P2
2022/10/28 00:01:27;;;;;;;;;;;;;10.00;98780.00;;;;108965;1268;41161;-57
2022/10/28 00:03:59;;;;;;;;;;;;;9.82;98779.40;;;;108979;1265;41143;-55
2022/10/28 00:06:29;;;;;;;;;;;;;9.68;98775.20;;;;108931;1271;41930;-55
2022/10/28 00:08:58;;;;;;;;;;;;;9.50;98777.80;;;;108987;1265;41237;-55
2022/10/28 00:11:29;;;;;;;;;;;;;9.40;98782.00;;;;108967;1271;41144;-55
2022/10/28 00:13:58;;;;;;;;;;;;;9.40;98779.60;;;;109089;1268;41172;-56
2022/10/28 00:16:28;;;;;;;;;;;;;9.40;98775.40;;;;109060;1271;41139;-57
2022/10/28 00:18:58;;;;;;;;;;;;;9.38;98775.40;;;;109052;1268;41389;-57
2022/10/28 00:21:28;;;;;;;;;;;;;9.40;98778.40;;;;108992;1271;41252;-57
2022/10/28 00:23:58;;;;;;;;;;;;;9.40;98780.00;;;;108930;1271;42205;-57
2022/10/28 00:26:29;;;;;;;;;;;;;9.40;98778.60;;;;109109;1268;42263;-57
2022/10/28 00:29:00;;;;;;;;;;;;;9.40;98774.20;;;;109035;1265;41646;-54
2022/10/28 00:31:30;;;;;;;;;;;;;9.50;98771.40;;;;108937;1272;41450;-55
2022/10/28 00:34:01;;;;;;;;;;;;;9.40;98771.20;;;;108965;1271;41254;-55
2022/10/28 00:36:34;;;;;;;;;;;;;9.48;98769.00;;;;109009;1271;41233;-56
2022/10/28 00:39:09;;;;;;;;;;;;;9.40;98771.80;;;;109087;1271;41158;-56
2022/10/28 00:41:40;;;;;;;;;;;;;9.30;98770.40;;;;108937;1271;41265;-56
2022/10/28 00:44:30;;;;;;;;;;;;;9.20;98772.00;;;;109017;1273;41235;-56
2022/10/28 00:47:00;;;;;;;;;;;;;9.22;98771.80;;;;108958;1272;41616;-56
2022/10/28 00:49:31;;;;;;;;;;;;;9.20;98768.40;;;;108933;1273;42680;-56
2022/10/28 00:52:04;;;;;;;;;;;;;9.20;98770.20;;;;108857;1272;41248;-55
2022/10/28 00:54:34;;;;;;;;;;;;;9.20;98763.00;;;;109021;1272;41714;-56
2022/10/28 00:57:03;;;;;;;;;;;;;9.20;98767.40;;;;109037;1272;41183;-56
2022/10/28 00:59:35;;;;;;;;;;;;;9.20;98761.60;;;;109061;1269;42425;-56
2022/10/28 01:02:04;;;;;;;;;;;;;9.20;98767.60;;;;108960;1273;41705;-56
2022/10/28 01:04:34;;;;;;;;;;;;;9.16;98761.40;;;;109019;1272;41151;-55
2022/10/28 01:07:04;;;;;;;;;;;;;9.10;98763.00;;;;109031;1270;41392;-56
2022/10/28 01:09:35;;;;;;;;;;;;;9.10;98763.80;;;;109083;1269;41233;-56
2022/10/28 01:12:08;;;;;;;;;;;;;9.10;98763.20;;;;109068;1270;42434;-56
2022/10/28 01:14:42;;;;;;;;;;;;;9.10;98763.40;;;;109041;1270;41257;-56
2022/10/28 01:17:12;;;;;;;;;;;;;9.10;98760.80;;;;109041;1272;41459;-56
2022/10/28 01:19:59;;;;;;;;;;;;;9.10;98754.60;;;;109002;1269;42367;-56
2022/10/28 01:22:48;;;;;;;;;;;;;9.04;98760.60;;;;109030;1272;41185;-57
2022/10/28 01:25:18;;;;;;;;;;;;;9.00;98760.00;;;;109021;1272;41822;-56
2022/10/28 01:27:55;;;;;;;;;;;;;9.00;98758.20;;;;109047;1268;41147;-56
2022/10/28 01:30:28;;;;;;;;;;;;;9.00;98753.20;;;;109075;1270;41377;-56
2022/10/28 01:33:01;;;;;;;;;;;;;8.94;98753.80;;;;109055;1271;41726;-56
2022/10/28 01:35:34;;;;;;;;;;;;;8.90;98753.60;;;;109022;1268;41218;-55
2022/10/28 01:38:16;;;;;;;;;;;;;8.90;98755.60;;;;109013;1272;41181;-56
2022/10/28 01:40:51;;;;;;;;;;;;;8.84;98760.00;;;;109046;1268;41235;-56
2022/10/28 01:43:22;;;;;;;;;;;;;8.80;98756.80;;;;109028;1271;42145;-56
2022/10/28 01:45:57;;;;;;;;;;;;;8.80;98757.80;;;;109074;1269;41505;-56
2022/10/28 01:48:32;;;;;;;;;;;;;8.80;98750.40;;;;109056;1270;41623;-56
2022/10/28 01:51:11;;;;;;;;;;;;;8.70;98757.00;;;;109059;1270;41178;-56
2022/10/28 01:53:41;;;;;;;;;;;;;8.70;98752.60;;;;109045;1270;41212;-56
2022/10/28 01:56:12;;;;;;;;;;;;;8.60;98753.00;;;;109047;1270;42308;-56
2022/10/28 01:58:42;;;;;;;;;;;;;8.60;98752.40;;;;108960;1269;41181;-56
2022/10/28 02:01:12;;;;;;;;;;;;;8.60;98757.80;;;;108989;1272;41171;-56
2022/10/28 02:03:44;;;;;;;;;;;;;8.60;98754.00;;;;108932;1270;42254;-56
2022/10/28 02:06:15;;;;;;;;;;;;;8.60;98756.60;;;;109047;1272;41924;-56
2022/10/28 02:09:03;;;;;;;;;;;;;8.50;98754.60;;;;109023;1270;41457;-56
2022/10/28 02:11:50;;;;;;;;;;;;;8.50;98756.60;;;;109066;1272;41646;-56
2022/10/28 02:14:22;;;;;;;;;;;;;8.50;98757.60;;;;109021;1272;41174;-56
2022/10/28 02:16:51;;;;;;;;;;;;;8.50;98757.40;;;;109060;1272;41152;-56
2022/10/28 02:19:46;;;;;;;;;;;;;8.40;98750.80;;;;108988;1269;41240;-56
2022/10/28 02:22:34;;;;;;;;;;;;;8.30;98756.20;;;;109053;1271;41734;-56
2022/10/28 02:25:16;;;;;;;;;;;;;8.30;98758.20;;;;109045;1268;42125;-56
2022/10/28 02:27:59;;;;;;;;;;;;;8.30;98754.80;;;;108986;1271;41737;-56
2022/10/28 02:30:38;;;;;;;;;;;;;8.30;98749.80;;;;109061;1268;41153;-55
2022/10/28 02:33:09;;;;;;;;;;;;;8.30;98749.60;;;;109046;1269;41399;-55
2022/10/28 02:35:40;;;;;;;;;;;;;8.30;98744.80;;;;108985;1272;41542;-56
2022/10/28 02:38:10;;;;;;;;;;;;;8.22;98742.20;;;;108969;1272;42270;-56
2022/10/28 02:40:41;;;;;;;;;;;;;8.20;98745.40;;;;109033;1271;41192;-56
2022/10/28 02:43:10;;;;;;;;;;;;;8.20;98743.40;;;;108997;1271;42603;-57
2022/10/28 02:45:40;;;;;;;;;;;;;8.20;98741.60;;;;109008;1268;41621;-57
2022/10/28 02:48:29;;;;;;;;;;;;;8.20;98748.60;;;;109043;1270;41599;-56
2022/10/28 02:51:02;;;;;;;;;;;;;8.20;98748.00;;;;109055;1268;41137;-56
2022/10/28 02:53:33;;;;;;;;;;;;;8.10;98741.60;;;;108981;1269;41600;-59
2022/10/28 02:56:02;;;;;;;;;;;;;8.10;98744.20;;;;108998;1272;41147;-56
2022/10/28 02:58:39;;;;;;;;;;;;;8.10;98741.40;;;;109025;1271;41229;-56
2022/10/28 03:01:08;;;;;;;;;;;;;8.10;98745.20;;;;108937;1272;41768;-56
2022/10/28 03:03:38;;;;;;;;;;;;;8.08;98744.60;;;;108931;1272;41311;-56
2022/10/28 03:06:07;;;;;;;;;;;;;8.04;98742.40;;;;108927;1273;42084;-56
2022/10/28 03:08:36;;;;;;;;;;;;;8.04;98740.40;;;;108990;1272;41235;-56
2022/10/28 03:11:05;;;;;;;;;;;;;8.04;98745.40;;;;108960;1272;41146;-57
2022/10/28 03:13:35;;;;;;;;;;;;;8.00;98745.80;;;;109039;1272;41169;-57
2022/10/28 03:16:05;;;;;;;;;;;;;8.00;98742.20;;;;109033;1270;41174;-56
2022/10/28 03:18:35;;;;;;;;;;;;;8.00;98742.40;;;;109050;1271;41169;-57
2022/10/28 03:21:04;;;;;;;;;;;;;7.90;98743.00;;;;109022;1271;41155;-57
2022/10/28 03:23:33;;;;;;;;;;;;;7.80;98740.40;;;;109082;1272;41234;-56
2022/10/28 03:26:03;;;;;;;;;;;;;7.72;98743.20;;;;109030;1268;41140;-56
2022/10/28 03:28:32;;;;;;;;;;;;;7.70;98742.20;;;;108977;1272;41732;-55
2022/10/28 03:31:01;;;;;;;;;;;;;7.60;98741.80;;;;108962;1272;41240;-56
2022/10/28 03:33:30;;;;;;;;;;;;;7.60;98743.60;;;;108954;1272;41264;-56
2022/10/28 03:36:00;;;;;;;;;;;;;7.60;98739.20;;;;108986;1272;41142;-56
2022/10/28 03:38:29;;;;;;;;;;;;;7.56;98741.60;;;;109041;1268;42177;-56
2022/10/28 03:40:58;;;;;;;;;;;;;7.52;98744.20;;;;109055;1270;41144;-56
2022/10/28 03:43:27;;;;;;;;;;;;;7.50;98744.40;;;;109031;1272;41141;-57
2022/10/28 03:45:56;;;;;;;;;;;;;7.60;98744.80;;;;109022;1272;41140;-56
2022/10/28 03:48:28;;;;;;;;;;;;;7.60;98747.00;;;;109005;1272;41205;-56
2022/10/28 03:50:58;;;;;;;;;;;;;7.70;98742.00;;;;108982;1272;42029;-55
2022/10/28 03:53:27;;;;;;;;;;;;;7.70;98742.60;;;;108964;1270;42237;-56
2022/10/28 03:55:59;;;;;;;;;;;;;7.70;98738.40;;;;109051;1271;41551;-55
2022/10/28 03:58:28;;;;;;;;;;;;;7.70;98743.20;;;;109022;1268;41393;-56
2022/10/28 04:00:58;;;;;;;;;;;;;7.70;98739.20;;;;109065;1270;41159;-56
2022/10/28 04:03:26;;;;;;;;;;;;;7.70;98738.20;;;;109054;1264;41265;-56
2022/10/28 04:05:56;;;;;;;;;;;;;7.60;98736.40;;;;108977;1270;41143;-57
2022/10/28 04:08:25;;;;;;;;;;;;;7.60;98735.60;;;;109040;1269;42233;-56
2022/10/28 04:10:54;;;;;;;;;;;;;7.60;98736.00;;;;109066;1269;41232;-56
2022/10/28 04:13:22;;;;;;;;;;;;;7.60;98727.40;;;;109062;1268;41589;-56
2022/10/28 04:15:51;;;;;;;;;;;;;7.56;98733.20;;;;109069;1269;41166;-56
2022/10/28 04:18:20;;;;;;;;;;;;;7.54;98731.60;;;;109036;1269;41234;-56
2022/10/28 04:20:50;;;;;;;;;;;;;7.50;98729.20;;;;109070;1269;41210;-56
2022/10/28 04:23:19;;;;;;;;;;;;;7.50;98729.60;;;;109010;1264;41885;-56
2022/10/28 04:25:52;;;;;;;;;;;;;7.50;98729.20;;;;109037;1269;41669;-56
2022/10/28 04:28:23;;;;;;;;;;;;;7.50;98728.60;;;;109029;1269;41133;-56
2022/10/28 04:30:51;;;;;;;;;;;;;7.40;98730.60;;;;109017;1269;41189;-57
2022/10/28 04:33:20;;;;;;;;;;;;;7.40;98729.80;;;;108999;1269;41599;-56
2022/10/28 04:35:49;;;;;;;;;;;;;7.32;98729.60;;;;108980;1271;41158;-56
2022/10/28 04:38:18;;;;;;;;;;;;;7.30;98728.00;;;;108995;1269;41165;-56
2022/10/28 04:40:47;;;;;;;;;;;;;7.30;98730.80;;;;109000;1265;41167;-57
2022/10/28 04:43:16;;;;;;;;;;;;;7.20;98730.40;;;;109002;1267;41133;-58
2022/10/28 04:45:45;;;;;;;;;;;;;7.20;98732.80;;;;108989;1269;41148;-57
2022/10/28 04:48:14;;;;;;;;;;;;;7.10;98736.80;;;;109035;1268;41137;-57
2022/10/28 04:50:44;;;;;;;;;;;;;7.10;98740.80;;;;109053;1268;41214;-57
2022/10/28 04:53:12;;;;;;;;;;;;;7.10;98739.80;;;;109000;1268;41163;-56
2022/10/28 04:55:41;;;;;;;;;;;;;7.10;98738.00;;;;109013;1268;41194;-56
2022/10/28 04:58:10;;;;;;;;;;;;;7.06;98738.80;;;;108996;1268;41697;-55
2022/10/28 05:00:38;;;;;;;;;;;;;7.00;98750.20;;;;108999;1268;41138;-55
2022/10/28 05:03:07;;;;;;;;;;;;;7.00;98744.60;;;;108946;1267;41250;-56
2022/10/28 05:05:36;;;;;;;;;;;;;6.96;98746.20;;;;109078;1269;41129;-56
2022/10/28 05:08:05;;;;;;;;;;;;;6.90;98741.60;;;;109023;1268;41140;-56
2022/10/28 05:10:34;;;;;;;;;;;;;6.90;98744.00;;;;109014;1268;41148;-56
2022/10/28 05:13:02;;;;;;;;;;;;;6.90;98745.40;;;;109022;1268;41809;-57
2022/10/28 05:15:31;;;;;;;;;;;;;6.90;98739.00;;;;108992;1268;41392;-56
2022/10/28 05:17:59;;;;;;;;;;;;;6.90;98738.20;;;;109040;1268;41210;-56
2022/10/28 05:20:28;;;;;;;;;;;;;6.90;98742.00;;;;109035;1268;42577;-56
2022/10/28 05:22:56;;;;;;;;;;;;;6.92;98743.80;;;;108985;1268;41163;-58
2022/10/28 05:25:25;;;;;;;;;;;;;7.00;98743.40;;;;109061;1259;41723;-57
2022/10/28 05:27:56;;;;;;;;;;;;;7.00;98740.20;;;;109019;1264;42145;-57
2022/10/28 05:30:25;;;;;;;;;;;;;7.00;98738.80;;;;108976;1268;41148;-57
2022/10/28 05:33:01;;;;;;;;;;;;;7.00;98742.20;;;;108941;1268;41226;-57
2022/10/28 05:35:29;;;;;;;;;;;;;7.02;98753.20;;;;108942;1272;41138;-57
2022/10/28 05:37:57;;;;;;;;;;;;;7.10;98751.20;;;;108954;1268;41660;-57
2022/10/28 05:40:26;;;;;;;;;;;;;7.10;98746.40;;;;108901;1269;42819;-56
2022/10/28 05:42:54;;;;;;;;;;;;;7.10;98749.20;;;;108941;1265;41159;-55
2022/10/28 05:45:23;;;;;;;;;;;;;7.10;98754.00;;;;108944;1268;41165;-55
2022/10/28 05:47:51;;;;;;;;;;;;;7.16;98753.00;;;;109031;1268;42605;-56
2022/10/28 05:50:21;;;;;;;;;;;;;7.14;98752.40;;;;109014;1268;41156;-56
2022/10/28 05:52:50;;;;;;;;;;;;;7.10;98758.60;;;;109029;1268;41150;-56
2022/10/28 05:55:19;;;;;;;;;;;;;7.10;98761.80;;;;108968;1268;41910;-56
2022/10/28 05:57:48;;;;;;;;;;;;;7.20;98761.80;;;;108927;1268;41156;-56
2022/10/28 06:00:18;;;;;;;;;;;;;7.20;98761.60;;;;108995;1268;41172;-56
2022/10/28 06:02:46;;;;;;;;;;;;;7.30;98760.40;;;;109038;1266;41174;-57
2022/10/28 06:05:15;;;;;;;;;;;;;7.40;98767.60;;;;109022;1268;41156;-57
2022/10/28 06:07:43;;;;;;;;;;;;;7.44;98769.80;;;;109073;1267;41135;-57
2022/10/28 06:10:11;;;;;;;;;;;;;7.50;98773.20;;;;108921;1268;41147;-56
2022/10/28 06:12:41;;;;;;;;;;;;;7.60;98773.60;;;;109014;1268;42128;-56
2022/10/28 06:15:09;;;;;;;;;;;;;7.76;98776.00;;;;108986;1268;41150;-56
2022/10/28 06:17:37;;;;;;;;;;;;;7.88;98769.40;;;;108999;1268;41787;-56
2022/10/28 06:20:06;;;;;;;;;;;;;8.00;98770.40;;;;108989;1268;41747;-57
2022/10/28 06:22:34;;;;;;;;;;;;;8.18;98770.60;;;;109032;1264;41937;-56
2022/10/28 06:25:03;;;;;;;;;;;;;8.30;98773.20;;;;108999;1267;41634;-56
2022/10/28 06:27:32;;;;;;;;;;;;;8.50;98776.20;;;;109041;1267;41138;-56
2022/10/28 06:30:00;;;;;;;;;;;;;8.68;98771.00;;;;108987;1269;41131;-56
2022/10/28 06:32:29;;;;;;;;;;;;;8.90;98778.40;;;;108971;1268;41318;-56
2022/10/28 06:34:57;;;;;;;;;;;;;9.08;98776.20;;;;109025;1268;41185;-56
2022/10/28 06:37:26;;;;;;;;;;;;;9.26;98776.40;;;;109016;1263;41203;-57
2022/10/28 06:39:55;;;;;;;;;;;;;9.42;98779.40;;;;108950;1269;41203;-56
2022/10/28 06:42:23;;;;;;;;;;;;;9.60;98778.40;;;;108986;1268;41707;-57
2022/10/28 06:44:53;;;;;;;;;;;;;9.80;98779.60;;;;108961;1268;41146;-57
2022/10/28 06:47:23;;;;;;;;;;;;;9.90;98781.40;;;;108946;1268;41147;-56
2022/10/28 06:49:51;;;;;;;;;;;;;10.10;98781.60;;;;109054;1265;41157;-56
2022/10/28 06:52:20;;;;;;;;;;;;;10.26;98783.40;;;;108974;1268;42372;-56
2022/10/28 06:54:48;;;;;;;;;;;;;10.42;98779.60;;;;108981;1268;41978;-56
2022/10/28 06:57:16;;;;;;;;;;;;;10.60;98780.40;;;;108979;1268;41263;-56
2022/10/28 06:59:45;;;;;;;;;;;;;10.80;98778.80;;;;109027;1268;41158;-56
2022/10/28 07:02:16;;;;;;;;;;;;;10.90;98781.80;;;;108999;1268;41164;-55
2022/10/28 07:04:45;;;;;;;;;;;;;11.10;98779.20;;;;108998;1267;41287;-55
2022/10/28 07:07:13;;;;;;;;;;;;;11.30;98779.00;;;;108982;1269;41254;-55
2022/10/28 07:09:42;;;;;;;;;;;;;11.46;98783.40;;;;108996;1268;41232;-55
2022/10/28 07:12:11;;;;;;;;;;;;;11.70;98782.00;;;;109011;1268;41146;-55
2022/10/28 07:14:39;;;;;;;;;;;;;11.80;98779.20;;;;109022;1268;41140;-56
2022/10/28 07:17:08;;;;;;;;;;;;;12.00;98776.40;;;;109025;1268;41788;-55
2022/10/28 07:19:36;;;;;;;;;;;;;12.20;98778.60;;;;109010;1268;41147;-55
2022/10/28 07:22:04;;;;;;;;;;;;;12.40;98778.20;;;;108994;1268;41693;-55
2022/10/28 07:24:33;;;;;;;;;;;;;12.60;98781.60;;;;109040;1268;41147;-56
2022/10/28 07:27:01;;;;;;;;;;;;;12.80;98781.60;;;;108813;1268;218535;-56
2022/10/28 07:29:29;;;;;;;;;;;;;12.90;98779.00;;;;109050;1266;41163;-57
2022/10/28 07:31:58;;;;;;;;;;;;;13.08;98781.40;;;;109015;1268;41431;-56
2022/10/28 07:34:26;;;;;;;;;;;;;13.28;98776.60;;;;108979;1269;41163;-56
2022/10/28 07:36:55;;;;;;;;;;;;;13.42;98775.40;;;;108996;1268;41213;-56
2022/10/28 07:39:24;;;;;;;;;;;;;13.66;98778.00;;;;109010;1267;41407;-56
2022/10/28 07:41:52;;;;;;;;;;;;;13.82;98778.40;;;;109000;1268;41178;-56
2022/10/28 07:44:20;;;;;;;;;;;;;14.02;98778.40;;;;109003;1268;41370;-56
2022/10/28 07:46:49;;;;;;;;;;;;;14.20;98776.40;;;;109018;1268;41168;-56
2022/10/28 07:49:21;;;;;;;;;;;;;14.50;98776.20;;;;109098;1268;41141;-56
2022/10/28 07:51:50;;;;;;;;;;;;;14.70;98773.40;;;;109036;1268;41141;-57
2022/10/28 07:54:18;;;;;;;;;;;;;15.00;98771.20;;;;109049;1268;41185;-56
2022/10/28 07:56:46;;;;;;;;;;;;;15.20;98766.20;;;;109027;1268;41259;-56
2022/10/28 07:59:15;;;;;;;;;;;;;15.42;98765.80;;;;109012;1268;41319;-57
2022/10/28 08:01:43;;;;;;;;;;;;;15.60;98765.60;;;;109007;1269;41234;-55
2022/10/28 08:04:12;;;;;;;;;;;;;15.80;98762.80;;;;108974;1269;41142;-55
2022/10/28 08:06:41;;;;;;;;;;;;;16.00;98763.40;;;;108970;1269;42696;-55
2022/10/28 08:09:10;;;;;;;;;;;;;16.30;98760.80;;;;108923;1269;41133;-55
2022/10/28 08:11:38;;;;;;;;;;;;;16.52;98758.00;;;;108924;1269;41630;-56
2022/10/28 08:14:07;;;;;;;;;;;;;16.96;98760.40;;;;108915;1268;41177;-55
2022/10/28 08:16:35;;;;;;;;;;;;;17.50;98757.20;;;;109004;1268;41243;-56
2022/10/28 08:19:03;;;;;;;;;;;;;17.90;98753.00;;;;109020;1268;41231;-56
2022/10/28 08:21:34;;;;;;;;;;;;;18.20;98742.40;;;;109034;1268;41129;-56
2022/10/28 08:24:03;;;;;;;;;;;;;18.48;98741.80;;;;109032;1268;41617;-56
2022/10/28 08:26:31;;;;;;;;;;;;;18.78;98742.80;;;;109047;1268;41188;-56
2022/10/28 08:29:00;;;;;;;;;;;;;19.20;98740.20;;;;109010;1268;41150;-55
2022/10/28 08:31:30;;;;;;;;;;;;;19.66;98744.80;;;;108978;1266;41155;-56
2022/10/28 08:33:59;;;;;;;;;;;;;20.08;98739.40;;;;109021;1268;41677;-56
2022/10/28 08:36:27;;;;;;;;;;;;;20.50;98739.40;;;;108962;1267;41745;-56
2022/10/28 08:38:58;;;;;;;;;;;;;20.96;98739.60;;;;108906;1268;42661;-57
2022/10/28 08:41:38;;;;;;;;;;;;;21.40;98741.20;;;;108922;1268;42083;-56
2022/10/28 08:44:11;;;;;;;;;;;;;21.50;98733.40;;;;108917;1268;41147;-57
2022/10/28 08:46:48;;;;;;;;;;;;;21.64;98735.80;;;;108972;1268;41174;-57
2022/10/28 08:49:18;;;;;;;;;;;;;22.12;98733.00;;;;108998;1268;41242;-57
2022/10/28 08:51:46;;;;;;;;;;;;;22.50;98731.60;;;;108974;1268;41155;-57
2022/10/28 08:54:26;;;;;;;;;;;;;22.80;98729.20;;;;109003;1268;41601;-56
2022/10/28 08:56:56;;;;;;;;;;;;;23.28;98725.80;;;;109011;1268;41161;-57
2022/10/28 08:59:26;;;;;;;;;;;;;23.76;98728.80;;;;108944;1268;41929;-57
2022/10/28 09:02:12;;;;;;;;;;;;;24.18;98713.80;;;;109017;1267;41146;-57
2022/10/28 09:04:41;;;;;;;;;;;;;24.56;98715.40;;;;109048;1268;41231;-56
2022/10/28 09:07:29;;;;;;;;;;;;;24.88;98712.80;;;;109042;1267;41687;-56
2022/10/28 09:09:57;;;;;;;;;;;;;25.54;98709.40;;;;109037;1268;41799;-56
2022/10/28 09:12:26;;;;;;;;;;;;;26.00;98709.20;;;;109001;1268;41551;-56
2022/10/28 09:15:03;;;;;;;;;;;;;26.20;98707.00;;;;108983;1268;41236;-56
2022/10/28 09:17:32;;;;;;;;;;;;;26.70;98710.40;;;;108980;1268;41499;-56
2022/10/28 09:20:04;;;;;;;;;;;;;27.20;98704.40;;;;108950;1268;42106;-56
2022/10/28 09:22:45;;;;;;;;;;;;;27.50;98703.20;;;;109070;1268;41404;-57
2022/10/28 09:25:21;;;;;;;;;;;;;27.60;98696.20;;;;109018;1267;41688;-56
2022/10/28 09:27:52;;;;;;;;;;;;;27.62;98698.40;;;;108937;1268;41292;-56
2022/10/28 09:30:21;;;;;;;;;;;;;27.82;98695.80;;;;109061;1268;42253;-57
2022/10/28 09:33:00;;;;;;;;;;;;;28.04;98695.00;;;;108953;1267;41606;-57
2022/10/28 09:35:30;;;;;;;;;;;;;28.36;98691.00;;;;108981;1268;41614;-56
2022/10/28 09:38:06;;;;;;;;;;;;;28.76;98684.20;;;;108984;1268;41238;-57
2022/10/28 09:40:35;;;;;;;;;;;;;29.08;98681.40;;;;109000;1268;41151;-57
2022/10/28 09:43:16;;;;;;;;;;;;;29.20;98685.60;;;;108982;1266;41620;-57
2022/10/28 09:45:45;;;;;;;;;;;;;29.32;98684.60;;;;109050;1268;41149;-57
2022/10/28 09:48:22;;;;;;;;;;;;;29.38;98681.60;;;;109002;1268;41942;-56
2022/10/28 09:50:51;;;;;;;;;;;;;29.76;98678.20;;;;109030;1267;41562;-56
2022/10/28 09:53:23;;;;;;;;;;;;;29.70;98674.80;;;;109049;1268;41139;-56
2022/10/28 09:55:52;;;;;;;;;;;;;30.00;98672.20;;;;108977;1268;41156;-56
2022/10/28 09:58:20;;;;;;;;;;;;;30.10;98679.60;;;;108948;1268;41297;-57
2022/10/28 10:00:49;;;;;;;;;;;;;30.00;98676.60;;;;109009;1268;41223;-56
2022/10/28 10:03:17;;;;;;;;;;;;;29.90;98674.40;;;;109018;1268;41175;-56
2022/10/28 10:05:48;;;;;;;;;;;;;30.44;98673.60;;;;109022;1267;41880;-57
2022/10/28 10:08:18;;;;;;;;;;;;;30.98;98675.20;;;;109037;1268;42184;-56
2022/10/28 10:10:51;;;;;;;;;;;;;31.36;98668.80;;;;109020;1268;41525;-57
2022/10/28 10:13:24;;;;;;;;;;;;;31.48;98661.00;;;;109018;1268;41676;-56
2022/10/28 10:15:54;;;;;;;;;;;;;31.14;98664.40;;;;109043;1267;41408;-56
2022/10/28 10:18:31;;;;;;;;;;;;;31.20;98664.60;;;;109036;1268;41827;-56
2022/10/28 10:21:01;;;;;;;;;;;;;31.84;98664.20;;;;109065;1267;41606;-56
2022/10/28 10:23:33;;;;;;;;;;;;;31.52;98660.60;;;;109065;1268;41171;-57
2022/10/28 10:26:02;;;;;;;;;;;;;31.60;98662.80;;;;109045;1268;41139;-56
2022/10/28 10:28:42;;;;;;;;;;;;;31.72;98660.80;;;;108938;1268;43571;-57
2022/10/28 10:31:18;;;;;;;;;;;;;31.42;98662.00;;;;109034;1267;41424;-58
2022/10/28 10:33:50;;;;;;;;;;;;;31.56;98657.40;;;;109069;1267;41208;-56
2022/10/28 10:36:22;;;;;;;;;;;;;31.60;98663.00;;;;109009;1265;41925;-55
2022/10/28 10:38:52;;;;;;;;;;;;;31.66;98660.20;;;;108983;1266;41929;-55
2022/10/28 10:41:37;;;;;;;;;;;;;32.00;98655.60;;;;109056;1268;42186;-57
2022/10/28 10:44:21;;;;;;;;;;;;;31.90;98652.80;;;;109010;1266;41169;-57
2022/10/28 10:46:58;;;;;;;;;;;;;32.02;98653.20;;;;108984;1267;41159;-57
2022/10/28 10:49:32;;;;;;;;;;;;;32.06;98653.40;;;;109003;1268;41680;-57
2022/10/28 10:52:01;;;;;;;;;;;;;31.78;98644.40;;;;109046;1268;41223;-55
2022/10/28 10:54:31;;;;;;;;;;;;;32.28;98647.00;;;;109025;1268;41134;-56
2022/10/28 10:57:06;;;;;;;;;;;;;32.80;98649.20;;;;109012;1268;41211;-56
2022/10/28 10:59:36;;;;;;;;;;;;;32.72;98645.60;;;;108995;1263;41138;-57
2022/10/28 11:02:16;;;;;;;;;;;;;33.08;98640.60;;;;109021;1268;41156;-56
2022/10/28 11:04:48;;;;;;;;;;;;;33.10;98643.40;;;;108888;1268;41182;-57
2022/10/28 11:07:17;;;;;;;;;;;;;33.20;98637.20;;;;108975;1268;41140;-56
2022/10/28 11:09:48;;;;;;;;;;;;;33.56;98636.60;;;;108947;1268;41638;-56
2022/10/28 11:12:22;;;;;;;;;;;;;34.06;98634.00;;;;109040;1268;41986;-57
2022/10/28 11:14:53;;;;;;;;;;;;;34.60;98630.80;;;;109049;1264;42813;-56
2022/10/28 11:17:22;;;;;;;;;;;;;34.60;98630.20;;;;108979;1268;41128;-57
2022/10/28 11:19:53;;;;;;;;;;;;;34.52;98627.20;;;;109068;1268;42646;-57
2022/10/28 11:22:24;;;;;;;;;;;;;34.36;98625.40;;;;109075;1268;42198;-56
2022/10/28 11:25:11;;;;;;;;;;;;;34.50;98625.40;;;;108991;1264;42493;-57
2022/10/28 11:27:48;;;;;;;;;;;;;34.80;98623.60;;;;109008;1268;41151;-56
2022/10/28 11:30:25;;;;;;;;;;;;;35.00;98624.80;;;;109010;1268;41195;-57
2022/10/28 11:32:57;;;;;;;;;;;;;35.14;98620.20;;;;109018;1267;41146;-57
2022/10/28 11:35:42;;;;;;;;;;;;;34.90;98620.40;;;;108983;1268;41612;-58
2022/10/28 11:38:10;;;;;;;;;;;;;35.40;98618.40;;;;109021;1268;42599;-57
2022/10/28 11:40:38;;;;;;;;;;;;;35.84;98614.20;;;;109008;1268;41132;-57
2022/10/28 11:43:16;;;;;;;;;;;;;36.14;98610.80;;;;109023;1268;41142;-57
2022/10/28 11:45:49;;;;;;;;;;;;;36.12;98605.40;;;;109031;1268;41296;-56
2022/10/28 11:48:28;;;;;;;;;;;;;36.54;98607.60;;;;109029;1268;41158;-57
2022/10/28 11:51:02;;;;;;;;;;;;;37.02;98603.20;;;;108965;1268;41634;-57
2022/10/28 11:53:31;;;;;;;;;;;;;37.00;98598.60;;;;109037;1268;41151;-57
2022/10/28 11:56:07;;;;;;;;;;;;;37.20;98599.00;;;;108931;1268;41371;-57
2022/10/28 11:58:42;;;;;;;;;;;;;37.58;98601.60;;;;108941;1268;41600;-56
2022/10/28 12:01:19;;;;;;;;;;;;;37.74;98595.00;;;;108930;1266;41228;-56
2022/10/28 12:03:52;;;;;;;;;;;;;37.20;98591.60;;;;109009;1268;42103;-58
2022/10/28 12:06:41;;;;;;;;;;;;;37.30;98593.40;;;;109091;1268;41142;-57
2022/10/28 12:09:22;;;;;;;;;;;;;36.98;98595.00;;;;108916;1268;41864;-57
2022/10/28 12:11:59;;;;;;;;;;;;;35.80;98593.40;;;;109003;1266;41165;-57
2022/10/28 12:14:33;;;;;;;;;;;;;35.70;98593.60;;;;109014;1268;42499;-57
2022/10/28 12:17:39;;;;;;;;;;;;;35.84;98595.00;;;;109076;1268;41638;-57
2022/10/28 12:20:19;;;;;;;;;;;;;35.36;98589.20;;;;108573;1275;41139;-57
2022/10/28 12:22:48;;;;;;;;;;;;;34.72;98594.20;;;;108965;1268;41239;-57
2022/10/28 12:25:18;;;;;;;;;;;;;34.50;98592.00;;;;109036;1268;41309;-57
2022/10/28 12:27:49;;;;;;;;;;;;;34.66;98586.80;;;;109034;1268;41134;-57
2022/10/28 12:30:21;;;;;;;;;;;;;35.10;98584.20;;;;109062;1267;41162;-57
2022/10/28 12:33:19;;;;;;;;;;;;;34.66;98586.80;;;;108972;1264;41652;-57
2022/10/28 12:36:09;;;;;;;;;;;;;34.50;98587.20;;;;108896;1268;41878;-57
2022/10/28 12:38:39;;;;;;;;;;;;;34.40;98581.00;;;;108953;1266;41218;-57
2022/10/28 12:41:12;;;;;;;;;;;;;34.80;98585.80;;;;108977;1259;41352;-57
2022/10/28 12:43:42;;;;;;;;;;;;;35.26;98580.00;;;;109006;1268;41147;-56
2022/10/28 12:46:15;;;;;;;;;;;;;35.50;98584.00;;;;109029;1259;40728;-57
2022/10/28 12:48:45;;;;;;;;;;;;;35.70;98580.20;;;;109013;1265;41159;-57
2022/10/28 12:51:28;;;;;;;;;;;;;36.00;98585.00;;;;109006;1268;41185;-57
2022/10/28 12:54:00;;;;;;;;;;;;;36.00;98575.80;;;;109033;1268;41233;-57
2022/10/28 12:56:30;;;;;;;;;;;;;36.26;98577.20;;;;109052;1268;41370;-57
2022/10/28 12:58:59;;;;;;;;;;;;;36.60;98572.60;;;;109033;1264;41691;-56
2022/10/28 13:01:28;;;;;;;;;;;;;36.60;98569.60;;;;109017;1268;41131;-57
2022/10/28 13:03:56;;;;;;;;;;;;;36.70;98568.80;;;;108927;1268;41970;-58
2022/10/28 13:06:43;;;;;;;;;;;;;36.80;98568.00;;;;108920;1268;41902;-56
2022/10/28 13:09:33;;;;;;;;;;;;;36.70;98565.60;;;;109068;1268;41146;-56
2022/10/28 13:12:04;;;;;;;;;;;;;36.58;98564.40;;;;108985;1268;42158;-56
2022/10/28 13:14:52;;;;;;;;;;;;;36.30;98559.80;;;;108910;1268;41160;-56
2022/10/28 13:17:29;;;;;;;;;;;;;36.20;98561.40;;;;109030;1268;41170;-57
2022/10/28 13:20:26;;;;;;;;;;;;;36.20;98561.40;;;;109008;1268;41402;-57
2022/10/28 13:23:04;;;;;;;;;;;;;36.50;98561.40;;;;108666;1268;41753;-58
2022/10/28 13:25:51;;;;;;;;;;;;;36.76;98562.20;;;;109010;1266;41629;-58
2022/10/28 13:28:21;;;;;;;;;;;;;37.10;98555.40;;;;109024;1268;42367;-58
2022/10/28 13:30:56;;;;;;;;;;;;;37.20;98559.80;;;;108956;1268;41966;-58
2022/10/28 13:33:25;;;;;;;;;;;;;36.96;98565.40;;;;108997;1268;41144;-57
2022/10/28 13:35:54;;;;;;;;;;;;;36.60;98565.80;;;;108950;1268;41130;-56
2022/10/28 13:38:23;;;;;;;;;;;;;36.30;98561.60;;;;109030;1267;41232;-58
2022/10/28 13:40:54;;;;;;;;;;;;;36.28;98559.60;;;;109040;1268;41153;-58
2022/10/28 13:43:46;;;;;;;;;;;;;36.38;98557.60;;;;108982;1268;41144;-57
2022/10/28 13:46:33;;;;;;;;;;;;;36.40;98553.20;;;;108999;1268;41597;-58
2022/10/28 13:49:22;;;;;;;;;;;;;36.16;98559.40;;;;108975;1268;41945;-59
2022/10/28 13:51:51;;;;;;;;;;;;;35.90;98561.20;;;;109022;1268;41201;-57
2022/10/28 13:54:27;;;;;;;;;;;;;35.60;98557.00;;;;109036;1268;41230;-57
2022/10/28 13:57:00;;;;;;;;;;;;;35.38;98559.80;;;;108976;1268;41601;-58
2022/10/28 13:59:29;;;;;;;;;;;;;34.98;98562.40;;;;109020;1268;41262;-58
2022/10/28 14:02:21;;;;;;;;;;;;;34.80;98558.80;;;;109035;1260;43465;-56